createdAt,value
2022-10-29T00:01:03.955Z,102426.68
2022-10-29T00:03:32.216Z,102420.96
2022-10-29T00:06:05.041Z,102417.55
2022-10-29T00:08:33.949Z,102418.44
2022-10-29T00:11:15.357Z,102416.41
2022-10-29T00:13:43.385Z,102420.44
2022-10-29T00:16:21.541Z,102427.23
2022-10-29T00:18:49.483Z,102421.52
2022-10-29T00:21:18.934Z,102431.78
2022-10-29T00:23:46.973Z,102437.50
2022-10-29T00:26:15.189Z,102442.05
2022-10-29T00:28:42.955Z,102449.50
2022-10-29T00:31:17.750Z,102443.42
2022-10-29T00:33:45.792Z,102438.55
2022-10-29T00:36:15.430Z,102434.52
2022-10-29T00:38:43.221Z,102435.67
2022-10-29T00:41:13.782Z,102434.20
2022-10-29T00:43:52.117Z,102428.48
2022-10-29T00:46:25.843Z,102437.27
2022-10-29T00:48:54.099Z,102421.61
2022-10-29T00:51:21.842Z,102434.10
2022-10-29T00:53:52.391Z,102436.62
2022-10-29T00:56:20.191Z,102436.13
2022-10-29T00:58:47.881Z,102440.34
2022-10-29T01:01:15.918Z,102451.27
2022-10-29T01:03:44.325Z,102439.82
2022-10-29T01:06:12.103Z,102438.16
2022-10-29T01:08:39.832Z,102439.82
2022-10-29T01:11:29.259Z,102442.34
2022-10-29T01:14:18.794Z,102444.70
2022-10-29T01:17:17.916Z,102447.05
2022-10-29T01:20:21.493Z,102443.52
2022-10-29T01:23:02.212Z,102442.57
2022-10-29T01:25:54.631Z,102443.42
2022-10-29T01:28:32.408Z,102442.24
2022-10-29T01:31:09.270Z,102433.84
2022-10-29T01:33:43.238Z,102428.97
2022-10-29T01:36:34.958Z,102430.34
2022-10-29T01:39:22.930Z,102425.99
2022-10-29T01:42:13.897Z,102410.82
2022-10-29T01:45:02.120Z,102409.84
2022-10-29T01:47:32.036Z,102400.39
2022-10-29T01:50:03.975Z,102401.57
2022-10-29T01:52:33.535Z,102398.37
2022-10-29T01:55:01.322Z,102399.25
2022-10-29T01:57:36.363Z,102403.99
2022-10-29T02:00:08.009Z,102404.31
2022-10-29T02:03:03.467Z,102394.21
2022-10-29T02:05:52.495Z,102386.98
2022-10-29T02:08:20.502Z,102378.39
2022-10-29T02:11:02.019Z,102382.64
2022-10-29T02:13:34.321Z,102388.88
2022-10-29T02:16:02.148Z,102385.87
2022-10-29T02:18:29.927Z,102380.68
2022-10-29T02:20:57.707Z,102384.41
2022-10-29T02:23:25.487Z,102393.00
2022-10-29T02:25:53.308Z,102390.65
2022-10-29T02:30:53.761Z,102395.20
2022-10-29T02:33:22.735Z,102399.77
2022-10-29T02:35:50.451Z,102392.02
2022-10-29T02:38:18.285Z,102379.01
2022-10-29T02:40:46.060Z,102386.40
2022-10-29T02:43:13.912Z,102376.63
2022-10-29T02:45:41.743Z,102382.37
2022-10-29T02:48:09.508Z,102375.28
2022-10-29T02:50:37.301Z,102363.84
2022-10-29T02:53:05.050Z,102361.81
2022-10-29T02:55:32.803Z,102372.08
2022-10-29T02:58:00.631Z,102379.01
2022-10-29T03:00:28.404Z,102375.97
2022-10-29T03:02:56.488Z,102377.18
2022-10-29T03:05:24.413Z,102377.18
2022-10-29T03:07:52.125Z,102370.05
2022-10-29T03:10:19.841Z,102373.45
2022-10-29T03:12:47.577Z,102370.90
2022-10-29T03:15:15.422Z,102366.03
2022-10-29T03:17:43.194Z,102364.52
2022-10-29T03:20:11.257Z,102369.10
2022-10-29T03:22:39.049Z,102353.93
2022-10-29T03:25:07.340Z,102370.25
2022-10-29T03:27:46.222Z,102362.01
2022-10-29T03:30:14.849Z,102364.85
2022-10-29T03:32:46.889Z,102358.77
2022-10-29T03:35:15.462Z,102366.55
2022-10-29T03:37:43.236Z,102366.72
2022-10-29T03:40:11.382Z,102377.05
2022-10-29T03:42:39.972Z,102376.69
2022-10-29T03:45:08.083Z,102369.46
2022-10-29T03:47:35.848Z,102374.04
2022-10-29T03:50:03.679Z,102373.71
2022-10-29T03:52:31.459Z,102367.63
2022-10-29T03:54:59.147Z,102367.63
2022-10-29T03:57:26.917Z,102362.56
2022-10-29T03:59:54.756Z,102361.42
2022-10-29T04:02:22.627Z,102365.41
2022-10-29T04:04:50.456Z,102363.22
2022-10-29T04:07:18.331Z,102371.81
2022-10-29T04:09:46.127Z,102364.39
2022-10-29T04:12:13.848Z,102367.60
2022-10-29T04:14:45.587Z,102359.13
2022-10-29T04:17:13.905Z,102359.59
2022-10-29T04:19:41.749Z,102365.15
2022-10-29T04:28:41.336Z,102354.32
2022-10-29T04:30:32.638Z,102363.12
2022-10-29T04:33:00.847Z,102353.96
2022-10-29T04:35:29.456Z,102359.72
2022-10-29T04:37:57.182Z,102361.38
2022-10-29T04:40:25.635Z,102361.09
2022-10-29T04:42:53.554Z,102359.06
2022-10-29T04:45:21.465Z,102373.09
2022-10-29T04:47:49.215Z,102371.88
2022-10-29T04:50:17.016Z,102368.19
2022-10-29T04:52:44.698Z,102364.98
2022-10-29T04:55:12.451Z,102359.59
2022-10-29T04:57:40.174Z,102358.41
2022-10-29T05:00:08.478Z,102371.26
2022-10-29T05:02:37.133Z,102354.88
2022-10-29T05:05:04.985Z,102357.10
2022-10-29T05:07:32.730Z,102366.03
2022-10-29T05:10:00.625Z,102369.40
2022-10-29T05:12:28.411Z,102371.33
2022-10-29T05:14:56.417Z,102371.49
2022-10-29T05:17:24.169Z,102373.52
2022-10-29T05:19:51.929Z,102363.74
2022-10-29T05:22:19.704Z,102362.56
2022-10-29T05:24:47.489Z,102366.29
2022-10-29T05:27:15.434Z,102363.74
2022-10-29T05:29:43.189Z,102371.81
2022-10-29T05:32:10.953Z,102362.73
2022-10-29T05:34:42.032Z,102359.20
2022-10-29T05:37:12.071Z,102367.80
2022-10-29T05:39:39.868Z,102364.10
2022-10-29T05:42:07.730Z,102369.46
2022-10-29T05:44:35.473Z,102370.67
2022-10-29T05:47:03.288Z,102372.86
2022-10-29T05:49:30.987Z,102365.11
2022-10-29T05:51:58.725Z,102372.53
2022-10-29T05:54:26.474Z,102374.23
2022-10-29T05:56:54.228Z,102375.09
2022-10-29T05:59:22.208Z,102370.18
2022-10-29T06:01:50.107Z,102369.85
2022-10-29T06:04:17.974Z,102369.85
2022-10-29T06:06:45.813Z,102362.63
2022-10-29T06:09:13.598Z,102364.00
2022-10-29T06:11:41.292Z,102365.18
2022-10-29T06:14:09.032Z,102361.45
2022-10-29T06:16:36.799Z,102363.45
2022-10-29T06:19:04.603Z,102362.10
2022-10-29T06:21:32.297Z,102371.23
2022-10-29T06:24:00.003Z,102371.55
2022-10-29T06:26:27.784Z,102380.16
2022-10-29T06:28:55.527Z,102373.58
2022-10-29T06:31:23.285Z,102375.28
2022-10-29T06:33:51.065Z,102378.98
2022-10-29T06:36:18.898Z,102369.73
2022-10-29T06:38:46.679Z,102379.99
2022-10-29T06:41:14.524Z,102371.39
2022-10-29T06:43:42.414Z,102378.68
2022-10-29T06:46:10.187Z,102368.16
2022-10-29T06:48:37.927Z,102375.74
2022-10-29T06:51:06.024Z,102374.04
2022-10-29T06:53:33.743Z,102375.74
2022-10-29T06:56:01.534Z,102371.16
2022-10-29T06:58:33.073Z,102376.88
2022-10-29T07:01:04.299Z,102366.62
2022-10-29T07:03:32.131Z,102364.91
2022-10-29T07:06:03.598Z,102376.88
2022-10-29T07:08:34.538Z,102375.22
2022-10-29T07:11:04.002Z,102380.94
2022-10-29T07:13:31.768Z,102375.54
2022-10-29T07:15:59.647Z,102378.62
2022-10-29T07:18:39.302Z,102382.31
2022-10-29T07:21:07.354Z,102384.53
2022-10-29T07:23:35.554Z,102393.33
2022-10-29T07:26:03.468Z,102386.40
2022-10-29T07:28:31.336Z,102382.87
2022-10-29T07:31:02.404Z,102391.34
2022-10-29T07:33:31.617Z,102395.91
2022-10-29T07:36:00.005Z,102390.68
2022-10-29T07:38:27.848Z,102385.98
2022-10-29T07:40:55.778Z,102389.93
2022-10-29T07:43:23.966Z,102387.54
2022-10-29T07:45:52.163Z,102394.64
2022-10-29T07:48:20.868Z,102399.41
2022-10-29T07:50:49.114Z,102394.70
2022-10-29T07:53:17.116Z,102401.11
2022-10-29T07:55:44.878Z,102396.73
2022-10-29T07:58:13.145Z,102399.48
2022-10-29T08:00:41.730Z,102399.70
2022-10-29T08:03:09.630Z,102397.41
2022-10-29T08:05:37.360Z,102395.62
2022-10-29T08:08:05.712Z,102394.02
2022-10-29T08:10:34.364Z,102400.10
2022-10-29T08:13:03.214Z,102399.05
2022-10-29T08:15:32.029Z,102398.17
2022-10-29T08:17:59.798Z,102392.41
2022-10-29T08:20:28.579Z,102397.32
2022-10-29T08:22:56.552Z,102394.73
2022-10-29T08:25:24.481Z,102386.98
2022-10-29T08:28:02.887Z,102392.94
2022-10-29T08:30:30.846Z,102386.01
2022-10-29T08:32:59.349Z,102387.34
2022-10-29T08:35:27.987Z,102381.27
2022-10-29T08:37:56.210Z,102387.54
2022-10-29T08:40:31.682Z,102388.55
2022-10-29T08:43:07.857Z,102377.60
2022-10-29T08:45:47.848Z,102377.77
2022-10-29T08:48:42.862Z,102377.77
2022-10-29T08:51:37.805Z,102379.80
2022-10-29T08:56:57.947Z,102378.78
2022-10-29T08:59:26.601Z,102382.34
2022-10-29T09:01:54.817Z,102380.84
2022-10-29T09:04:31.244Z,102384.24
2022-10-29T09:06:58.880Z,102378.13
2022-10-29T09:09:40.171Z,102371.72
2022-10-29T09:12:52.543Z,102374.95
2022-10-29T09:15:35.389Z,102380.88
2022-10-29T09:18:20.043Z,102382.24
2022-10-29T09:20:53.808Z,102374.79
2022-10-29T09:24:06.232Z,102377.83
2022-10-29T09:26:39.952Z,102370.41
2022-10-29T09:29:38.308Z,102367.37
2022-10-29T09:32:10.025Z,102365.15
2022-10-29T09:34:56.548Z,102368.22
2022-10-29T09:37:45.392Z,102366.20
2022-10-29T09:40:30.252Z,102369.04
2022-10-29T09:42:59.508Z,102361.09
2022-10-29T09:45:36.957Z,102361.65
2022-10-29T09:48:17.473Z,102355.04
2022-10-29T09:51:21.377Z,102360.77
2022-10-29T09:53:50.403Z,102353.84
2022-10-29T09:56:18.255Z,102343.47
2022-10-29T09:58:47.379Z,102347.52
2022-10-29T10:01:15.212Z,102339.55
2022-10-29T10:03:47.023Z,102346.97
2022-10-29T10:06:16.766Z,102349.65
2022-10-29T10:09:05.946Z,102349.65
2022-10-29T10:11:43.680Z,102344.02
2022-10-29T10:14:23.914Z,102342.84
2022-10-29T10:17:01.454Z,102340.55
2022-10-29T10:19:32.263Z,102335.26
2022-10-29T10:22:05.314Z,102335.69
2022-10-29T10:24:37.317Z,102327.19
2022-10-29T10:27:20.018Z,102330.55
2022-10-29T10:30:19.111Z,102322.90
2022-10-29T10:32:46.880Z,102315.38
2022-10-29T10:35:33.098Z,102319.34
2022-10-29T10:38:01.309Z,102312.57
2022-10-29T10:40:29.161Z,102311.23
2022-10-29T10:42:57.071Z,102318.48
2022-10-29T10:45:26.776Z,102313.81
2022-10-29T10:47:59.398Z,102308.98
2022-10-29T10:50:32.274Z,102304.20
2022-10-29T10:53:15.958Z,102295.08
2022-10-29T10:55:59.013Z,102287.63
2022-10-29T10:58:33.310Z,102283.05
2022-10-29T11:01:20.643Z,102277.98
2022-10-29T11:03:59.055Z,102272.65
2022-10-29T11:06:31.010Z,102271.90
2022-10-29T11:09:04.835Z,102266.77
2022-10-29T11:12:04.505Z,102259.44
2022-10-29T11:14:46.811Z,102253.88
2022-10-29T11:17:25.300Z,102245.15
2022-10-29T11:19:53.284Z,102244.79
2022-10-29T11:22:55.036Z,102240.18
2022-10-29T11:25:32.586Z,102231.35
2022-10-29T11:28:06.486Z,102235.31
2022-10-29T11:30:37.917Z,102232.10
2022-10-29T11:33:36.188Z,102225.08
2022-10-29T11:36:18.733Z,102228.15
2022-10-29T11:38:58.172Z,102231.88
2022-10-29T11:41:58.958Z,102227.23
2022-10-29T11:44:27.097Z,102223.48
2022-10-29T11:47:18.163Z,102217.39
2022-10-29T11:49:57.992Z,102216.64
2022-10-29T11:52:44.384Z,102213.44
2022-10-29T11:55:18.103Z,102216.84
2022-10-29T11:57:48.881Z,102209.31
2022-10-29T12:00:21.245Z,102201.50
2022-10-29T12:02:55.488Z,102198.59
2022-10-29T12:05:42.229Z,102205.33
2022-10-29T12:08:30.994Z,102198.85
2022-10-29T12:11:07.577Z,102196.47
2022-10-29T12:13:50.648Z,102192.28
2022-10-29T12:16:29.801Z,102186.52
2022-10-29T12:18:57.427Z,102184.11
2022-10-29T12:21:48.670Z,102188.72
2022-10-29T12:24:53.725Z,102177.14
2022-10-29T12:27:44.825Z,102173.22
2022-10-29T12:30:14.127Z,102167.53
2022-10-29T12:32:57.637Z,102173.35
2022-10-29T12:35:30.770Z,102165.86
2022-10-29T12:38:20.379Z,102164.20
2022-10-29T12:40:51.065Z,102164.62
2022-10-29T12:43:30.772Z,102154.62
2022-10-29T12:46:22.940Z,102160.01
2022-10-29T12:49:13.982Z,102155.73
2022-10-29T12:51:54.751Z,102160.76
2022-10-29T12:54:28.155Z,102144.51
2022-10-29T12:56:57.742Z,102155.27
2022-10-29T12:59:25.348Z,102150.23
2022-10-29T13:04:41.149Z,102150.89
2022-10-29T13:10:25.731Z,102150.82
2022-10-29T13:12:56.416Z,102153.27
2022-10-29T13:15:25.291Z,102140.66
2022-10-29T13:17:53.471Z,102152.13
2022-10-29T13:20:42.839Z,102150.07
2022-10-29T13:23:36.993Z,102142.13
2022-10-29T13:26:10.620Z,102135.42
2022-10-29T13:28:38.288Z,102136.56
2022-10-29T13:31:05.935Z,102134.54
2022-10-29T13:33:33.557Z,102137.88
2022-10-29T13:36:05.903Z,102135.42
2022-10-29T13:39:04.685Z,102135.03
2022-10-29T13:41:44.006Z,102137.09
2022-10-29T13:44:12.613Z,102134.67
2022-10-29T13:47:06.443Z,102135.03
2022-10-29T13:49:39.167Z,102125.13
2022-10-29T13:52:09.790Z,102120.64
2022-10-29T13:54:56.429Z,102121.07
2022-10-29T13:57:39.010Z,102118.23
2022-10-29T14:00:06.985Z,102110.84
2022-10-29T14:02:38.331Z,102107.86
2022-10-29T14:05:20.393Z,102111.65
2022-10-29T14:08:00.500Z,102107.01
2022-10-29T14:10:42.831Z,102104.13
2022-10-29T14:13:32.497Z,102101.16
2022-10-29T14:16:13.091Z,102098.25
2022-10-29T14:18:45.568Z,102095.37
2022-10-29T14:21:23.175Z,102098.18
2022-10-29T14:24:00.965Z,102096.74
2022-10-29T14:26:30.417Z,102099.20
2022-10-29T14:29:04.367Z,102090.34
2022-10-29T14:31:32.243Z,102103.48
2022-10-29T14:34:00.992Z,102095.04
2022-10-29T14:36:45.011Z,102095.76
2022-10-29T14:39:32.384Z,102095.14
2022-10-29T14:42:05.695Z,102097.88
2022-10-29T14:44:34.116Z,102093.93
2022-10-29T14:47:26.619Z,102092.55
2022-10-29T14:49:59.744Z,102097.73
2022-10-29T14:52:40.675Z,102092.98
2022-10-29T14:55:25.882Z,102092.43
2022-10-29T14:58:17.665Z,102093.02
2022-10-29T15:01:01.795Z,102096.58
2022-10-29T15:03:32.119Z,102091.45
2022-10-29T15:06:20.209Z,102094.55
2022-10-29T15:08:58.966Z,102094.81
2022-10-29T15:11:39.735Z,102083.89
2022-10-29T15:14:33.712Z,102092.75
2022-10-29T15:19:46.561Z,102089.48
2022-10-29T15:22:20.658Z,102088.02
2022-10-29T15:24:51.872Z,102086.21
2022-10-29T15:27:19.683Z,102083.63
2022-10-29T15:29:48.876Z,102086.77
2022-10-29T15:32:18.245Z,102088.66
2022-10-29T15:34:54.021Z,102083.96
2022-10-29T15:37:34.044Z,102081.73
2022-10-29T15:40:02.943Z,102082.39
2022-10-29T15:42:33.488Z,102073.40
2022-10-29T15:45:08.384Z,102073.98
2022-10-29T15:47:37.791Z,102062.97
2022-10-29T15:50:06.838Z,102082.13
2022-10-29T15:52:54.427Z,102070.00
2022-10-29T15:55:27.519Z,102077.38
2022-10-29T15:57:57.138Z,102075.95
2022-10-29T16:00:25.326Z,102077.42
2022-10-29T16:02:53.191Z,102083.70
2022-10-29T16:05:21.095Z,102088.44
2022-10-29T16:07:49.613Z,102085.30
2022-10-29T16:10:19.834Z,102083.40
2022-10-29T16:12:48.894Z,102079.45
2022-10-29T16:15:18.587Z,102079.58
2022-10-29T16:17:47.121Z,102083.89
2022-10-29T16:20:19.283Z,102086.18
2022-10-29T16:22:47.728Z,102084.74
2022-10-29T16:25:26.902Z,102083.30
2022-10-29T16:27:55.473Z,102078.83
2022-10-29T16:30:24.369Z,102070.45
2022-10-29T16:32:53.589Z,102075.23
2022-10-29T16:35:22.808Z,102075.00
2022-10-29T16:37:57.269Z,102079.31
2022-10-29T16:40:28.909Z,102078.23
2022-10-29T16:42:57.996Z,102081.70
2022-10-29T16:45:28.274Z,102083.27
2022-10-29T16:47:56.844Z,102084.84
2022-10-29T16:50:27.171Z,102084.94
2022-10-29T16:53:08.927Z,102089.22
2022-10-29T16:55:38.241Z,102081.63
2022-10-29T16:58:08.152Z,102084.77
2022-10-29T17:00:37.816Z,102087.88
2022-10-29T17:03:10.028Z,102081.60
2022-10-29T17:05:39.792Z,102089.81
2022-10-29T17:08:07.619Z,102082.65
2022-10-29T17:10:35.851Z,102081.05
2022-10-29T17:13:03.681Z,102082.81
2022-10-29T17:15:31.903Z,102087.45
2022-10-29T17:17:59.876Z,102087.16
2022-10-29T17:20:27.965Z,102074.54
2022-10-29T17:22:55.708Z,102095.04
2022-10-29T17:25:24.012Z,102093.70
2022-10-29T17:27:51.850Z,102096.84
2022-10-29T17:30:19.708Z,102094.98
2022-10-29T17:32:48.795Z,102095.70
2022-10-29T17:35:16.628Z,102101.65
2022-10-29T17:37:44.590Z,102100.70
2022-10-29T17:40:12.711Z,102107.14
2022-10-29T17:42:40.735Z,102111.55
2022-10-29T17:45:09.377Z,102110.93
2022-10-29T17:47:37.467Z,102106.35
2022-10-29T17:50:06.103Z,102114.86
2022-10-29T17:52:33.919Z,102106.59
2022-10-29T17:55:01.768Z,102115.45
2022-10-29T17:57:29.612Z,102120.19
2022-10-29T17:59:57.505Z,102124.24
2022-10-29T18:02:25.355Z,102128.20
2022-10-29T18:04:53.569Z,102135.48
2022-10-29T18:07:21.703Z,102126.20
2022-10-29T18:09:49.867Z,102125.55
2022-10-29T18:12:17.790Z,102131.83
2022-10-29T18:14:46.636Z,102129.14
2022-10-29T18:17:14.471Z,102131.04
2022-10-29T18:19:43.531Z,102128.49
2022-10-29T18:22:11.481Z,102135.62
2022-10-29T18:24:40.580Z,102132.28
2022-10-29T18:27:08.563Z,102132.74
2022-10-29T18:29:36.750Z,102127.67
2022-10-29T18:32:04.643Z,102131.63
2022-10-29T18:34:33.577Z,102131.63
2022-10-29T18:37:03.616Z,102134.48
2022-10-29T18:39:31.479Z,102133.46
2022-10-29T18:41:59.920Z,102129.08
2022-10-29T18:44:27.976Z,102133.52
2022-10-29T18:46:55.886Z,102130.12
2022-10-29T18:49:23.828Z,102138.23
2022-10-29T18:51:51.928Z,102129.14
2022-10-29T18:54:20.924Z,102125.74
2022-10-29T18:56:48.852Z,102124.08
2022-10-29T18:59:16.728Z,102129.30
2022-10-29T19:01:44.828Z,102121.40
2022-10-29T19:04:14.687Z,102130.19
2022-10-29T19:06:42.680Z,102120.22
2022-10-29T19:09:11.032Z,102129.70
2022-10-29T19:11:39.277Z,102123.09
2022-10-29T19:14:10.837Z,102123.45
2022-10-29T19:16:39.096Z,102122.60
2022-10-29T19:19:08.682Z,102126.82
2022-10-29T19:21:36.870Z,102123.29
2022-10-29T19:24:05.327Z,102115.02
2022-10-29T19:26:35.026Z,102112.14
2022-10-29T19:29:05.068Z,102121.43
2022-10-29T19:31:33.395Z,102124.99
2022-10-29T19:34:03.000Z,102118.42
2022-10-29T19:36:31.067Z,102119.95
2022-10-29T19:38:59.352Z,102117.77
2022-10-29T19:41:27.713Z,102118.59
2022-10-29T19:43:58.807Z,102121.82
2022-10-29T19:46:26.573Z,102120.84
2022-10-29T19:48:55.572Z,102121.16
2022-10-29T19:51:23.425Z,102123.20
2022-10-29T19:53:52.742Z,102125.22
2022-10-29T19:56:21.116Z,102122.21
2022-10-29T19:58:49.067Z,102116.46
2022-10-29T20:01:20.365Z,102123.36
2022-10-29T20:03:51.240Z,102119.34
2022-10-29T20:06:19.080Z,102119.14
2022-10-29T20:08:46.924Z,102120.35
2022-10-29T20:11:14.801Z,102125.55
2022-10-29T20:13:42.708Z,102114.76
2022-10-29T20:16:11.867Z,102118.32
2022-10-29T20:18:39.746Z,102121.04
2022-10-29T20:21:07.983Z,102120.55
2022-10-29T20:23:36.143Z,102130.32
2022-10-29T20:26:04.077Z,102131.17
2022-10-29T20:28:31.956Z,102132.88
2022-10-29T20:31:17.948Z,102127.12
2022-10-29T20:33:52.887Z,102125.61
2022-10-29T20:36:20.915Z,102129.18
2022-10-29T20:38:52.269Z,102129.83
2022-10-29T20:41:20.021Z,102127.28
2022-10-29T20:43:58.595Z,102126.79
2022-10-29T20:46:29.631Z,102130.68
2022-10-29T20:48:58.342Z,102130.16
2022-10-29T20:51:26.498Z,102129.70
2022-10-29T20:53:54.516Z,102129.18
2022-10-29T20:56:23.779Z,102143.86
2022-10-29T20:58:51.751Z,102133.40
2022-10-29T21:01:20.741Z,102134.08
2022-10-29T21:03:49.276Z,102140.13
2022-10-29T21:06:17.681Z,102142.52
2022-10-29T21:08:49.386Z,102148.60
2022-10-29T21:11:17.977Z,102144.71
2022-10-29T21:13:45.893Z,102143.53
2022-10-29T21:16:30.676Z,102138.82
2022-10-29T21:19:00.005Z,102135.78
2022-10-29T21:21:28.542Z,102137.29
2022-10-29T21:23:57.493Z,102145.07
2022-10-29T21:26:26.345Z,102137.29
2022-10-29T21:28:54.335Z,102141.99
2022-10-29T21:31:22.738Z,102138.92
2022-10-29T21:33:54.047Z,102144.19
2022-10-29T21:36:22.381Z,102139.94
2022-10-29T21:38:50.529Z,102138.59
2022-10-29T21:41:19.375Z,102138.59
2022-10-29T21:43:47.185Z,102137.22
2022-10-29T21:46:14.988Z,102136.70
2022-10-29T21:48:42.771Z,102133.00
2022-10-29T21:51:14.776Z,102132.84
2022-10-29T21:53:42.781Z,102133.69
2022-10-29T21:56:12.986Z,102134.87
2022-10-29T21:58:40.711Z,102133.00
2022-10-29T22:01:10.586Z,102137.35
2022-10-29T22:03:39.379Z,102139.73
2022-10-29T22:06:28.850Z,102142.95
2022-10-29T22:08:57.983Z,102146.84
2022-10-29T22:11:26.341Z,102144.28
2022-10-29T22:13:54.622Z,102142.06
2022-10-29T22:16:22.880Z,102145.59
2022-10-29T22:18:51.086Z,102141.38
2022-10-29T22:21:20.953Z,102142.26
2022-10-29T22:23:49.559Z,102139.54
2022-10-29T22:26:18.438Z,102143.89
2022-10-29T22:28:46.588Z,102148.44
2022-10-29T22:31:15.808Z,102143.04
2022-10-29T22:33:44.293Z,102143.04
2022-10-29T22:36:16.581Z,102146.60
2022-10-29T22:38:44.479Z,102145.75
2022-10-29T22:41:16.757Z,102133.46
2022-10-29T22:43:44.924Z,102134.44
2022-10-29T22:46:17.282Z,102135.45
2022-10-29T22:48:45.003Z,102137.12
2022-10-29T22:51:25.767Z,102125.97
2022-10-29T22:53:54.038Z,102134.73
2022-10-29T22:56:26.146Z,102119.89
2022-10-29T22:58:54.183Z,102126.30
2022-10-29T23:01:23.901Z,102108.09
2022-10-29T23:03:52.081Z,102117.51
2022-10-29T23:06:22.068Z,102119.01
2022-10-29T23:08:52.152Z,102121.55
2022-10-29T23:11:24.283Z,102116.49
2022-10-29T23:14:02.662Z,102111.62
2022-10-29T23:16:31.824Z,102108.22
2022-10-29T23:19:02.179Z,102111.91
2022-10-29T23:21:30.157Z,102112.08
2022-10-29T23:23:58.031Z,102104.00
2022-10-29T23:26:26.319Z,102103.67
2022-10-29T23:28:54.129Z,102101.13
2022-10-29T23:31:26.329Z,102105.18
2022-10-29T23:33:55.287Z,102107.20
2022-10-29T23:36:24.024Z,102111.23
2022-10-29T23:38:58.598Z,102106.48
2022-10-29T23:41:27.063Z,102102.43
2022-10-29T23:43:54.877Z,102107.34
2022-10-29T23:46:22.692Z,102109.36
2022-10-29T23:48:50.704Z,102111.39
2022-10-29T23:51:18.704Z,102107.99
2022-10-29T23:53:47.584Z,102105.15
2022-10-29T23:56:16.887Z,102105.96
2022-10-29T23:58:46.908Z,102109.69
